Ns Century — A8IJ8 — position and weather

sailwx.info

Track history (hours):
 
Tides and Currents Weather Stations Pressure Air Temp Water Temp Dewpoint Dewpoint Depression Visibility Wind Speed Wind Dir Waves Ship Positions

Ns Century

Last reported at 2017-Oct-19 09:12 UTC. Time now 2017-Oct-20 14:34 UTC.
Position N 49°20' W 004°41'.

Length 244 m; draft 14.7 m.

Type: Ship. MMSI: 636012853.

Date/timePositionNaut miles runAvg speedWind from/ knotsBaromVisibWave heightAir tempDewpointWater temp
2017-Oct-19 09:12N 49°20' W 004°41'514.2
2017-Oct-19 08:51N 49°22' W 004°34'913.8
2017-Oct-19 08:11N 49°27' W 004°21'313.5
2017-Oct-19 07:59N 49°28' W 004°18'1112.9
2017-Oct-19 07:06N 49°34' W 004°03'512.2
2017-Oct-19 06:40N 49°37' W 003°56'211.9
2017-Oct-19 06:30N 49°37' W 003°53'611.7
2017-Oct-19 06:00N 49°40' W 003°45'611.3
2017-Oct-19 05:30N 49°43' W 003°37'611.3
2017-Oct-19 05:00N 49°45' W 003°30'611.4
2017-Oct-19 04:30N 49°48' W 003°22'611.9
2017-Oct-19 04:00N 49°51' W 003°14'612.5
2017-Oct-19 03:30N 49°54' W 003°05'713.2
2017-Oct-19 03:00N 49°57' W 002°57'714.3
2017-Oct-19 02:30N 49°59' W 002°46'815.2
2017-Oct-19 02:00N 50°02' W 002°35'816.1
2017-Oct-19 01:30N 50°04' W 002°23'816.6
2017-Oct-19 01:00N 50°07' W 002°10'3915.7
2017-Oct-18 22:30N 50°18' W 001°12'912.8
2017-Oct-18 21:48N 50°20' W 000°58'611.7
2017-Oct-18 21:18N 50°22' W 000°49'1510.7
2017-Oct-18 19:56N 50°26' W 000°27'510.9
2017-Oct-18 19:30N 50°27' W 000°20'611.3
2017-Oct-18 19:00N 50°29' W 000°12'611.8
2017-Oct-18 18:30N 50°30' W 000°03'612.2
2017-Oct-18 18:00N 50°32' E 000°06'612.9
2017-Oct-18 17:30N 50°34' E 000°16'713.7
2017-Oct-18 17:00N 50°36' E 000°27'714.1
2017-Oct-18 16:31N 50°39' E 000°37'714.5
2017-Oct-18 16:01N 50°43' E 000°46'714.4
2017-Oct-18 15:31N 50°47' E 000°55'714.0
2017-Oct-18 15:00N 50°51' E 001°04'1313.0
2017-Oct-18 14:01N 51°00' E 001°19'611.5
2017-Oct-18 13:30N 51°04' E 001°26'5 9.9
2017-Oct-18 13:01N 51°07' E 001°32'510.8
2017-Oct-18 12:31N 51°10' E 001°39'510.8
2017-Oct-18 12:01N 51°14' E 001°45'611.2
2017-Oct-18 11:31N 51°19' E 001°49'611.9
2017-Oct-18 11:01N 51°24' E 001°54'612.6
2017-Oct-18 10:30N 51°29' E 001°59'713.5
2017-Oct-18 10:01N 51°34' E 002°07'713.9
2017-Oct-18 09:30N 51°39' E 002°15'4614.6
2017-Oct-18 06:23N 52°21' E 002°45'814.7
2017-Oct-18 05:52N 52°27' E 002°51'1914.0
2017-Oct-18 04:32N 52°44' E 003°05'37111.1
2017-Oct-16 19:08N 57°44' E 009°27'213.0
2017-Oct-16 18:57N 57°45' E 009°31'613.0
2017-Oct-16 18:30N 57°47' E 009°41'713.2
2017-Oct-16 17:56N 57°49' E 009°54'613.1
2017-Oct-16 17:27N 57°50' E 010°06'613.1
2017-Oct-16 17:00N 57°51' E 010°17'712.8
2017-Oct-16 16:30N 57°51' E 010°29'612.2
2017-Oct-16 15:58N 57°50' E 010°41'511.6
2017-Oct-16 15:30N 57°47' E 010°49'5 9.1
2017-Oct-16 15:00N 57°44' E 010°55'1212.3
2017-Oct-16 14:00N 57°35' E 011°12'712.5
2017-Oct-16 13:29N 57°31' E 011°21'612.1
2017-Oct-16 12:58N 57°26' E 011°28'612.5
2017-Oct-16 12:30N 57°20' E 011°32'612.8
2017-Oct-16 12:00N 57°14' E 011°35'713.0
2017-Oct-16 11:28N 57°08' E 011°40'713.1
2017-Oct-16 10:58N 57°02' E 011°44'713.0
2017-Oct-16 10:26N 56°55' E 011°47'812.3
2017-Oct-16 09:48N 56°48' E 011°52'411.7
2017-Oct-16 09:30N 56°44' E 011°52'612.7
2017-Oct-16 09:00N 56°39' E 011°47'713.1
2017-Oct-16 08:27N 56°32' E 011°40'2412.9
2017-Oct-16 06:38N 56°12' E 011°18'412.2
2017-Oct-16 06:20N 56°09' E 011°15'512.6
2017-Oct-16 05:57N 56°06' E 011°09'612.7
2017-Oct-16 05:28N 56°00' E 011°04'3011.3
2017-Oct-16 02:50N 55°31' E 010°52'613.1
2017-Oct-16 02:24N 55°26' E 010°58'711.8
2017-Oct-16 01:49N 55°20' E 011°02'512.1
2017-Oct-16 01:24N 55°15' E 011°05'411.0
2017-Oct-16 01:00N 55°11' E 011°03'611.9
2017-Oct-16 00:30N 55°05' E 010°59'612.3
2017-Oct-16 00:00N 54°59' E 010°59'612.0
2017-Oct-15 23:30N 54°55' E 010°52'612.3
2017-Oct-15 23:00N 54°49' E 010°50'611.9
2017-Oct-15 22:30N 54°43' E 010°47'510.9
2017-Oct-15 22:00N 54°39' E 010°52'612.5
2017-Oct-15 21:30N 54°36' E 011°02'612.5
2017-Oct-15 21:00N 54°35' E 011°13'612.7
2017-Oct-15 20:30N 54°32' E 011°22'612.5
2017-Oct-15 20:00N 54°30' E 011°32'612.8
2017-Oct-15 19:30N 54°27' E 011°42'612.4
2017-Oct-15 19:00N 54°27' E 011°53'611.5
2017-Oct-15 18:30N 54°26' E 012°03'510.1
2017-Oct-15 18:00N 54°27' E 012°11'510.7
2017-Oct-15 17:30N 54°32' E 012°14'510.2
2017-Oct-15 17:00N 54°37' E 012°18'510.7
2017-Oct-15 16:30N 54°40' E 012°26'610.6
2017-Oct-15 15:58N 54°43' E 012°34'510.7
2017-Oct-15 15:30N 54°45' E 012°42'611.1
2017-Oct-15 15:00N 54°47' E 012°51'1313.0
2017-Oct-15 14:00N 54°53' E 013°12'813.0
2017-Oct-15 13:21N 54°55' E 013°25'1012.6
2017-Oct-15 12:35N 54°59' E 013°41'612.4
2017-Oct-15 12:08N 55°00' E 013°51'513.0
2017-Oct-15 11:46N 55°02' E 013°58'413.2
2017-Oct-15 11:29N 55°04' E 014°04'613.1
2017-Oct-15 11:00N 55°08' E 014°13'612.7
2017-Oct-15 10:30N 55°09' E 014°24'713.2
2017-Oct-15 10:00N 55°13' E 014°33'612.9
2017-Oct-15 09:30N 55°17' E 014°41'5 9.9
2017-Oct-15 09:00N 55°19' E 014°49'3 6.6
2017-Oct-15 08:30N 55°20' E 014°55'611.2
2017-Oct-15 08:00N 55°23' E 015°03'713.0
2017-Oct-15 07:30N 55°27' E 015°12'713.2
2017-Oct-15 07:00N 55°30' E 015°22'713.2
2017-Oct-15 06:30N 55°34' E 015°31'713.3
2017-Oct-15 06:00N 55°37' E 015°42'713.2
2017-Oct-15 05:30N 55°40' E 015°52'713.1
2017-Oct-15 05:00N 55°43' E 016°03'612.9
2017-Oct-15 04:30N 55°45' E 016°13'613.0
2017-Oct-15 04:00N 55°47' E 016°24'613.0
2017-Oct-15 03:30N 55°49' E 016°35'712.9
2017-Oct-15 03:00N 55°51' E 016°47'30012.3
2017-Oct-14 02:40N 59°34' E 022°60'213.7
2017-Oct-14 02:30N 59°35' E 023°04'713.6
2017-Oct-14 02:00N 59°36' E 023°17'713.8
2017-Oct-14 01:30N 59°39' E 023°30'713.4
2017-Oct-14 01:00N 59°41' E 023°43'713.4
2017-Oct-14 00:30N 59°43' E 023°55'913.4
2017-Oct-13 23:49N 59°45' E 024°13'413.5
2017-Oct-13 23:29N 59°47' E 024°21'613.2
2017-Oct-13 23:01N 59°48' E 024°34'713.2
2017-Oct-13 22:31N 59°50' E 024°46'713.7
2017-Oct-13 22:01N 59°51' E 024°60'3713.5
2017-Oct-13 19:17N 59°59' E 026°12'413.5
2017-Oct-13 19:00N 59°59' E 026°19'713.4
2017-Oct-13 18:30N 60°01' E 026°32'713.0
2017-Oct-13 18:00N 60°01' E 026°45'713.2
2017-Oct-13 17:30N 60°00' E 026°58'612.6
2017-Oct-13 17:00N 60°02' E 027°10'713.4
2017-Oct-13 16:30N 60°05' E 027°22'713.4
2017-Oct-13 16:00N 60°09' E 027°33'713.2
2017-Oct-13 15:30N 60°12' E 027°45'612.2
2017-Oct-13 15:00N 60°11' E 027°57'612.7
2017-Oct-13 14:30N 60°09' E 028°09'612.3
2017-Oct-13 14:00N 60°06' E 028°20'612.5
2017-Oct-13 13:30N 60°04' E 028°31'611.2
2017-Oct-13 13:01N 59°58' E 028°36'4 8.1
2017-Oct-13 12:30N 59°55' E 028°31'4 8.0
2017-Oct-13 12:00N 59°51' E 028°27'4 8.4
2017-Oct-13 11:30N 59°47' E 028°25'1 1.0
2017-Oct-13 10:59N 59°47' E 028°25'0 0.0
2017-Oct-13 10:29N 59°47' E 028°25'0 0.0
2017-Oct-13 09:50N 59°47' E 028°25'0 0.1
2017-Oct-13 09:20N 59°47' E 028°25'0 0.1
2017-Oct-13 08:35N 59°47' E 028°25'0 0.0
2017-Oct-13 08:20N 59°47' E 028°25'0 0.0
2017-Oct-13 07:50N 59°47' E 028°25'0 0.0
2017-Oct-13 07:23N 59°47' E 028°25'0 0.0
2017-Oct-13 06:53N 59°47' E 028°25'0 0.0
2017-Oct-13 06:23N 59°47' E 028°25'0 0.0
2017-Oct-13 05:53N 59°47' E 028°25'0 0.0
2017-Oct-13 05:23N 59°47' E 028°25'0 0.0
2017-Oct-13 04:50N 59°47' E 028°25'0 0.0
2017-Oct-13 04:23N 59°47' E 028°25'0 0.0
2017-Oct-13 03:53N 59°47' E 028°25'0 0.0
2017-Oct-13 03:23N 59°47' E 028°25'0 0.0
2017-Oct-13 02:56N 59°47' E 028°25'0 0.0
2017-Oct-13 02:26N 59°47' E 028°25'0 0.0
2017-Oct-13 01:56N 59°47' E 028°25'0 0.0
2017-Oct-13 01:26N 59°47' E 028°25'0 0.0
2017-Oct-13 00:56N 59°47' E 028°25'0 0.0
2017-Oct-13 00:26N 59°47' E 028°25'0 0.0
2017-Oct-12 23:56N 59°47' E 028°25'0 0.0
2017-Oct-12 23:25N 59°47' E 028°25'0 0.0
2017-Oct-12 22:55N 59°47' E 028°25'0 0.0
2017-Oct-12 22:25N 59°47' E 028°25'0 0.0
2017-Oct-12 21:58N 59°47' E 028°25'0 0.0
2017-Oct-12 21:28N 59°47' E 028°25'0 0.0
2017-Oct-12 20:58N 59°47' E 028°25'0 0.0
2017-Oct-12 20:28N 59°47' E 028°25'0 0.0
2017-Oct-12 19:58N 59°47' E 028°25'0 0.0
2017-Oct-12 19:28N 59°47' E 028°25'0 0.0
2017-Oct-12 18:58N 59°47' E 028°25'0 0.0
2017-Oct-12 18:28N 59°47' E 028°25'0 0.0
2017-Oct-12 17:58N 59°47' E 028°25'0 0.0
2017-Oct-12 17:28N 59°47' E 028°25'0 0.0
2017-Oct-12 16:55N 59°47' E 028°25'0 0.0
2017-Oct-12 16:28N 59°47' E 028°25'0 0.0
2017-Oct-12 15:58N 59°47' E 028°25'0 0.0
2017-Oct-12 15:28N 59°47' E 028°25'0 0.1
2017-Oct-12 14:58N 59°47' E 028°25'0 0.0
2017-Oct-12 14:28N 59°47' E 028°25'0 0.0
2017-Oct-12 13:58N 59°47' E 028°25'0 0.0
2017-Oct-12 13:30N 59°47' E 028°25'0 0.0
2017-Oct-12 12:58N 59°47' E 028°25'0 0.0
2017-Oct-12 12:16N 59°47' E 028°25'0 0.2
2017-Oct-12 11:49N 59°47' E 028°25'0 0.2
2017-Oct-12 11:28N 59°47' E 028°25'0 0.1
2017-Oct-12 10:58N 59°47' E 028°25'0 0.1
2017-Oct-12 10:28N 59°47' E 028°25'0 0.2
2017-Oct-12 10:00N 59°47' E 028°25'2 4.7
2017-Oct-12 09:30N 59°45' E 028°25'2 4.3
2017-Oct-12 09:00N 59°42' E 028°25'0 0.2
2017-Oct-12 08:30N 59°42' E 028°26'0 0.0
2017-Oct-12 08:00N 59°42' E 028°26'0 0.0
2017-Oct-12 07:21N 59°42' E 028°26'0 0.0
2017-Oct-12 06:51N 59°42' E 028°26'0 0.0
2017-Oct-12 06:21N 59°42' E 028°26'0 0.0
2017-Oct-12 05:51N 59°42' E 028°26'0 0.0
2017-Oct-12 05:21N 59°42' E 028°26'0 0.0
2017-Oct-12 04:54N 59°42' E 028°26'0 0.0
2017-Oct-12 04:24N 59°42' E 028°26'0 0.0
2017-Oct-12 03:54N 59°42' E 028°26'0 0.0
2017-Oct-12 03:24N 59°42' E 028°26'0 0.0
2017-Oct-12 02:54N 59°42' E 028°26'0 0.0
2017-Oct-12 02:24N 59°42' E 028°26'0 0.0
2017-Oct-12 01:54N 59°42' E 028°26'0 0.0
2017-Oct-12 01:24N 59°42' E 028°26'0 0.0
2017-Oct-12 00:54N 59°42' E 028°26'0 0.0
2017-Oct-12 00:24N 59°42' E 028°26'0 0.0
2017-Oct-11 23:57N 59°42' E 028°26'0 0.0
2017-Oct-11 23:27N 59°42' E 028°26'0 0.0
2017-Oct-11 22:57N 59°42' E 028°26'0 0.0
2017-Oct-11 22:27N 59°42' E 028°26'0 0.0
2017-Oct-11 21:57N 59°42' E 028°26'0 0.0
2017-Oct-11 21:12N 59°42' E 028°26'0 0.0
2017-Oct-11 20:57N 59°42' E 028°26'0 0.0
2017-Oct-11 20:27N 59°42' E 028°26'0 0.0
2017-Oct-11 19:57N 59°42' E 028°26'0 0.0
2017-Oct-11 19:27N 59°42' E 028°26'0 0.0
2017-Oct-11 19:00N 59°42' E 028°26'0 0.0
2017-Oct-11 17:00N 59°42' E 028°26'53 3.0
2017-Oct-10 23:04N 59°59' E 026°46'211.4
2017-Oct-10 22:51N 59°59' E 026°41'412.0
2017-Oct-10 22:31N 59°58' E 026°33'3412.0
2017-Oct-10 19:38N 59°49' E 025°26'211.7
2017-Oct-10 19:30N 59°49' E 025°23'611.7
2017-Oct-10 19:01N 59°47' E 025°12'612.0
2017-Oct-10 18:30N 59°46' E 025°01'612.1
2017-Oct-10 18:01N 59°45' E 024°49'612.0
2017-Oct-10 17:30N 59°44' E 024°37'612.1
2017-Oct-10 17:00N 59°43' E 024°25'612.4
2017-Oct-10 16:30N 59°41' E 024°13'712.7
2017-Oct-10 15:58N 59°39' E 024°01'612.6
2017-Oct-10 15:29N 59°37' E 023°49'612.3
2017-Oct-10 15:01N 59°35' E 023°38'1212.4
2017-Oct-10 14:00N 59°31' E 023°15'612.5
2017-Oct-10 13:30N 59°29' E 023°03'  
Track history (hours):
 
Tides and Currents Weather Stations Pressure Air Temp Water Temp Dewpoint Dewpoint Depression Visibility Wind Speed Wind Dir Waves Ship Positions

Ns Century

Last reported at 2017-Oct-19 09:12 UTC. Time now 2017-Oct-20 14:34 UTC.
Position N 49°20' W 004°41'.

Length 244 m; draft 14.7 m.

Type: Ship. MMSI: 636012853.

Date/timePositionNaut miles runAvg speedWind from/ knotsBaromVisibWave heightAir tempDewpointWater temp
2017-Oct-19 09:12N 49°20' W 004°41'514.2
2017-Oct-19 08:51N 49°22' W 004°34'913.8
2017-Oct-19 08:11N 49°27' W 004°21'313.5
2017-Oct-19 07:59N 49°28' W 004°18'1112.9
2017-Oct-19 07:06N 49°34' W 004°03'512.2
2017-Oct-19 06:40N 49°37' W 003°56'211.9
2017-Oct-19 06:30N 49°37' W 003°53'611.7
2017-Oct-19 06:00N 49°40' W 003°45'611.3
2017-Oct-19 05:30N 49°43' W 003°37'611.3
2017-Oct-19 05:00N 49°45' W 003°30'611.4
2017-Oct-19 04:30N 49°48' W 003°22'611.9
2017-Oct-19 04:00N 49°51' W 003°14'612.5
2017-Oct-19 03:30N 49°54' W 003°05'713.2
2017-Oct-19 03:00N 49°57' W 002°57'714.3
2017-Oct-19 02:30N 49°59' W 002°46'815.2
2017-Oct-19 02:00N 50°02' W 002°35'816.1
2017-Oct-19 01:30N 50°04' W 002°23'816.6
2017-Oct-19 01:00N 50°07' W 002°10'3915.7
2017-Oct-18 22:30N 50°18' W 001°12'912.8
2017-Oct-18 21:48N 50°20' W 000°58'611.7
2017-Oct-18 21:18N 50°22' W 000°49'1510.7
2017-Oct-18 19:56N 50°26' W 000°27'510.9
2017-Oct-18 19:30N 50°27' W 000°20'611.3
2017-Oct-18 19:00N 50°29' W 000°12'611.8
2017-Oct-18 18:30N 50°30' W 000°03'612.2
2017-Oct-18 18:00N 50°32' E 000°06'612.9
2017-Oct-18 17:30N 50°34' E 000°16'713.7
2017-Oct-18 17:00N 50°36' E 000°27'714.1
2017-Oct-18 16:31N 50°39' E 000°37'714.5
2017-Oct-18 16:01N 50°43' E 000°46'714.4
2017-Oct-18 15:31N 50°47' E 000°55'714.0
2017-Oct-18 15:00N 50°51' E 001°04'1313.0
2017-Oct-18 14:01N 51°00' E 001°19'611.5
2017-Oct-18 13:30N 51°04' E 001°26'5 9.9
2017-Oct-18 13:01N 51°07' E 001°32'510.8
2017-Oct-18 12:31N 51°10' E 001°39'510.8
2017-Oct-18 12:01N 51°14' E 001°45'611.2
2017-Oct-18 11:31N 51°19' E 001°49'611.9
2017-Oct-18 11:01N 51°24' E 001°54'612.6
2017-Oct-18 10:30N 51°29' E 001°59'713.5
2017-Oct-18 10:01N 51°34' E 002°07'713.9
2017-Oct-18 09:30N 51°39' E 002°15'4614.6
2017-Oct-18 06:23N 52°21' E 002°45'814.7
2017-Oct-18 05:52N 52°27' E 002°51'1914.0
2017-Oct-18 04:32N 52°44' E 003°05'37111.1
2017-Oct-16 19:08N 57°44' E 009°27'213.0
2017-Oct-16 18:57N 57°45' E 009°31'613.0
2017-Oct-16 18:30N 57°47' E 009°41'713.2
2017-Oct-16 17:56N 57°49' E 009°54'613.1
2017-Oct-16 17:27N 57°50' E 010°06'613.1
2017-Oct-16 17:00N 57°51' E 010°17'712.8
2017-Oct-16 16:30N 57°51' E 010°29'612.2
2017-Oct-16 15:58N 57°50' E 010°41'511.6
2017-Oct-16 15:30N 57°47' E 010°49'5 9.1
2017-Oct-16 15:00N 57°44' E 010°55'1212.3
2017-Oct-16 14:00N 57°35' E 011°12'712.5
2017-Oct-16 13:29N 57°31' E 011°21'612.1
2017-Oct-16 12:58N 57°26' E 011°28'612.5
2017-Oct-16 12:30N 57°20' E 011°32'612.8
2017-Oct-16 12:00N 57°14' E 011°35'713.0
2017-Oct-16 11:28N 57°08' E 011°40'713.1
2017-Oct-16 10:58N 57°02' E 011°44'713.0
2017-Oct-16 10:26N 56°55' E 011°47'812.3
2017-Oct-16 09:48N 56°48' E 011°52'411.7
2017-Oct-16 09:30N 56°44' E 011°52'612.7
2017-Oct-16 09:00N 56°39' E 011°47'713.1
2017-Oct-16 08:27N 56°32' E 011°40'2412.9
2017-Oct-16 06:38N 56°12' E 011°18'412.2
2017-Oct-16 06:20N 56°09' E 011°15'512.6
2017-Oct-16 05:57N 56°06' E 011°09'612.7
2017-Oct-16 05:28N 56°00' E 011°04'3011.3
2017-Oct-16 02:50N 55°31' E 010°52'613.1
2017-Oct-16 02:24N 55°26' E 010°58'711.8
2017-Oct-16 01:49N 55°20' E 011°02'512.1
2017-Oct-16 01:24N 55°15' E 011°05'411.0
2017-Oct-16 01:00N 55°11' E 011°03'611.9
2017-Oct-16 00:30N 55°05' E 010°59'612.3
2017-Oct-16 00:00N 54°59' E 010°59'612.0
2017-Oct-15 23:30N 54°55' E 010°52'612.3
2017-Oct-15 23:00N 54°49' E 010°50'611.9
2017-Oct-15 22:30N 54°43' E 010°47'510.9
2017-Oct-15 22:00N 54°39' E 010°52'612.5
2017-Oct-15 21:30N 54°36' E 011°02'612.5
2017-Oct-15 21:00N 54°35' E 011°13'612.7
2017-Oct-15 20:30N 54°32' E 011°22'612.5
2017-Oct-15 20:00N 54°30' E 011°32'612.8
2017-Oct-15 19:30N 54°27' E 011°42'612.4
2017-Oct-15 19:00N 54°27' E 011°53'611.5
2017-Oct-15 18:30N 54°26' E 012°03'510.1
2017-Oct-15 18:00N 54°27' E 012°11'510.7
2017-Oct-15 17:30N 54°32' E 012°14'510.2
2017-Oct-15 17:00N 54°37' E 012°18'510.7
2017-Oct-15 16:30N 54°40' E 012°26'610.6
2017-Oct-15 15:58N 54°43' E 012°34'510.7
2017-Oct-15 15:30N 54°45' E 012°42'611.1
2017-Oct-15 15:00N 54°47' E 012°51'1313.0
2017-Oct-15 14:00N 54°53' E 013°12'813.0
2017-Oct-15 13:21N 54°55' E 013°25'1012.6
2017-Oct-15 12:35N 54°59' E 013°41'612.4
2017-Oct-15 12:08N 55°00' E 013°51'513.0
2017-Oct-15 11:46N 55°02' E 013°58'413.2
2017-Oct-15 11:29N 55°04' E 014°04'613.1
2017-Oct-15 11:00N 55°08' E 014°13'612.7
2017-Oct-15 10:30N 55°09' E 014°24'713.2
2017-Oct-15 10:00N 55°13' E 014°33'612.9
2017-Oct-15 09:30N 55°17' E 014°41'5 9.9
2017-Oct-15 09:00N 55°19' E 014°49'3 6.6
2017-Oct-15 08:30N 55°20' E 014°55'611.2
2017-Oct-15 08:00N 55°23' E 015°03'713.0
2017-Oct-15 07:30N 55°27' E 015°12'713.2
2017-Oct-15 07:00N 55°30' E 015°22'713.2
2017-Oct-15 06:30N 55°34' E 015°31'713.3
2017-Oct-15 06:00N 55°37' E 015°42'713.2
2017-Oct-15 05:30N 55°40' E 015°52'713.1
2017-Oct-15 05:00N 55°43' E 016°03'612.9
2017-Oct-15 04:30N 55°45' E 016°13'613.0
2017-Oct-15 04:00N 55°47' E 016°24'613.0
2017-Oct-15 03:30N 55°49' E 016°35'712.9
2017-Oct-15 03:00N 55°51' E 016°47'30012.3
2017-Oct-14 02:40N 59°34' E 022°60'213.7
2017-Oct-14 02:30N 59°35' E 023°04'713.6
2017-Oct-14 02:00N 59°36' E 023°17'713.8
2017-Oct-14 01:30N 59°39' E 023°30'713.4
2017-Oct-14 01:00N 59°41' E 023°43'713.4
2017-Oct-14 00:30N 59°43' E 023°55'913.4
2017-Oct-13 23:49N 59°45' E 024°13'413.5
2017-Oct-13 23:29N 59°47' E 024°21'613.2
2017-Oct-13 23:01N 59°48' E 024°34'713.2
2017-Oct-13 22:31N 59°50' E 024°46'713.7
2017-Oct-13 22:01N 59°51' E 024°60'3713.5
2017-Oct-13 19:17N 59°59' E 026°12'413.5
2017-Oct-13 19:00N 59°59' E 026°19'713.4
2017-Oct-13 18:30N 60°01' E 026°32'713.0
2017-Oct-13 18:00N 60°01' E 026°45'713.2
2017-Oct-13 17:30N 60°00' E 026°58'612.6
2017-Oct-13 17:00N 60°02' E 027°10'713.4
2017-Oct-13 16:30N 60°05' E 027°22'713.4
2017-Oct-13 16:00N 60°09' E 027°33'713.2
2017-Oct-13 15:30N 60°12' E 027°45'612.2
2017-Oct-13 15:00N 60°11' E 027°57'612.7
2017-Oct-13 14:30N 60°09' E 028°09'612.3
2017-Oct-13 14:00N 60°06' E 028°20'612.5
2017-Oct-13 13:30N 60°04' E 028°31'611.2
2017-Oct-13 13:01N 59°58' E 028°36'4 8.1
2017-Oct-13 12:30N 59°55' E 028°31'4 8.0
2017-Oct-13 12:00N 59°51' E 028°27'4 8.4
2017-Oct-13 11:30N 59°47' E 028°25'1 1.0
2017-Oct-13 10:59N 59°47' E 028°25'0 0.0
2017-Oct-13 10:29N 59°47' E 028°25'0 0.0
2017-Oct-13 09:50N 59°47' E 028°25'0 0.1
2017-Oct-13 09:20N 59°47' E 028°25'0 0.1
2017-Oct-13 08:35N 59°47' E 028°25'0 0.0
2017-Oct-13 08:20N 59°47' E 028°25'0 0.0
2017-Oct-13 07:50N 59°47' E 028°25'0 0.0
2017-Oct-13 07:23N 59°47' E 028°25'0 0.0
2017-Oct-13 06:53N 59°47' E 028°25'0 0.0
2017-Oct-13 06:23N 59°47' E 028°25'0 0.0
2017-Oct-13 05:53N 59°47' E 028°25'0 0.0
2017-Oct-13 05:23N 59°47' E 028°25'0 0.0
2017-Oct-13 04:50N 59°47' E 028°25'0 0.0
2017-Oct-13 04:23N 59°47' E 028°25'0 0.0
2017-Oct-13 03:53N 59°47' E 028°25'0 0.0
2017-Oct-13 03:23N 59°47' E 028°25'0 0.0
2017-Oct-13 02:56N 59°47' E 028°25'0 0.0
2017-Oct-13 02:26N 59°47' E 028°25'0 0.0
2017-Oct-13 01:56N 59°47' E 028°25'0 0.0
2017-Oct-13 01:26N 59°47' E 028°25'0 0.0
2017-Oct-13 00:56N 59°47' E 028°25'0 0.0
2017-Oct-13 00:26N 59°47' E 028°25'0 0.0
2017-Oct-12 23:56N 59°47' E 028°25'0 0.0
2017-Oct-12 23:25N 59°47' E 028°25'0 0.0
2017-Oct-12 22:55N 59°47' E 028°25'0 0.0
2017-Oct-12 22:25N 59°47' E 028°25'0 0.0
2017-Oct-12 21:58N 59°47' E 028°25'0 0.0
2017-Oct-12 21:28N 59°47' E 028°25'0 0.0
2017-Oct-12 20:58N 59°47' E 028°25'0 0.0
2017-Oct-12 20:28N 59°47' E 028°25'0 0.0
2017-Oct-12 19:58N 59°47' E 028°25'0 0.0
2017-Oct-12 19:28N 59°47' E 028°25'0 0.0
2017-Oct-12 18:58N 59°47' E 028°25'0 0.0
2017-Oct-12 18:28N 59°47' E 028°25'0 0.0
2017-Oct-12 17:58N 59°47' E 028°25'0 0.0
2017-Oct-12 17:28N 59°47' E 028°25'0 0.0
2017-Oct-12 16:55N 59°47' E 028°25'0 0.0
2017-Oct-12 16:28N 59°47' E 028°25'0 0.0
2017-Oct-12 15:58N 59°47' E 028°25'0 0.0
2017-Oct-12 15:28N 59°47' E 028°25'0 0.1
2017-Oct-12 14:58N 59°47' E 028°25'0 0.0
2017-Oct-12 14:28N 59°47' E 028°25'0 0.0
2017-Oct-12 13:58N 59°47' E 028°25'0 0.0
2017-Oct-12 13:30N 59°47' E 028°25'0 0.0
2017-Oct-12 12:58N 59°47' E 028°25'0 0.0
2017-Oct-12 12:16N 59°47' E 028°25'0 0.2
2017-Oct-12 11:49N 59°47' E 028°25'0 0.2
2017-Oct-12 11:28N 59°47' E 028°25'0 0.1
2017-Oct-12 10:58N 59°47' E 028°25'0 0.1
2017-Oct-12 10:28N 59°47' E 028°25'0 0.2
2017-Oct-12 10:00N 59°47' E 028°25'2 4.7
2017-Oct-12 09:30N 59°45' E 028°25'2 4.3
2017-Oct-12 09:00N 59°42' E 028°25'0 0.2
2017-Oct-12 08:30N 59°42' E 028°26'0 0.0
2017-Oct-12 08:00N 59°42' E 028°26'0 0.0
2017-Oct-12 07:21N 59°42' E 028°26'0 0.0
2017-Oct-12 06:51N 59°42' E 028°26'0 0.0
2017-Oct-12 06:21N 59°42' E 028°26'0 0.0
2017-Oct-12 05:51N 59°42' E 028°26'0 0.0
2017-Oct-12 05:21N 59°42' E 028°26'0 0.0
2017-Oct-12 04:54N 59°42' E 028°26'0 0.0
2017-Oct-12 04:24N 59°42' E 028°26'0 0.0
2017-Oct-12 03:54N 59°42' E 028°26'0 0.0
2017-Oct-12 03:24N 59°42' E 028°26'0 0.0
2017-Oct-12 02:54N 59°42' E 028°26'0 0.0
2017-Oct-12 02:24N 59°42' E 028°26'0 0.0
2017-Oct-12 01:54N 59°42' E 028°26'0 0.0
2017-Oct-12 01:24N 59°42' E 028°26'0 0.0
2017-Oct-12 00:54N 59°42' E 028°26'0 0.0
2017-Oct-12 00:24N 59°42' E 028°26'0 0.0
2017-Oct-11 23:57N 59°42' E 028°26'0 0.0
2017-Oct-11 23:27N 59°42' E 028°26'0 0.0
2017-Oct-11 22:57N 59°42' E 028°26'0 0.0
2017-Oct-11 22:27N 59°42' E 028°26'0 0.0
2017-Oct-11 21:57N 59°42' E 028°26'0 0.0
2017-Oct-11 21:12N 59°42' E 028°26'0 0.0
2017-Oct-11 20:57N 59°42' E 028°26'0 0.0
2017-Oct-11 20:27N 59°42' E 028°26'0 0.0
2017-Oct-11 19:57N 59°42' E 028°26'0 0.0
2017-Oct-11 19:27N 59°42' E 028°26'0 0.0
2017-Oct-11 19:00N 59°42' E 028°26'0 0.0
2017-Oct-11 17:00N 59°42' E 028°26'53 3.0
2017-Oct-10 23:04N 59°59' E 026°46'211.4
2017-Oct-10 22:51N 59°59' E 026°41'412.0
2017-Oct-10 22:31N 59°58' E 026°33'3412.0
2017-Oct-10 19:38N 59°49' E 025°26'211.7
2017-Oct-10 19:30N 59°49' E 025°23'611.7
2017-Oct-10 19:01N 59°47' E 025°12'612.0
2017-Oct-10 18:30N 59°46' E 025°01'612.1
2017-Oct-10 18:01N 59°45' E 024°49'612.0
2017-Oct-10 17:30N 59°44' E 024°37'612.1
2017-Oct-10 17:00N 59°43' E 024°25'612.4
2017-Oct-10 16:30N 59°41' E 024°13'712.7
2017-Oct-10 15:58N 59°39' E 024°01'612.6
2017-Oct-10 15:29N 59°37' E 023°49'612.3
2017-Oct-10 15:01N 59°35' E 023°38'1212.4
2017-Oct-10 14:00N 59°31' E 023°15'612.5
2017-Oct-10 13:30N 59°29' E 023°03'  

Dump ship's entire track history